This is the latest recevied weather packets stored in our database for station/object PA3CPS. If no packets are shown the sender has not sent any weather packets the latest 10 day(s).
| Time | Temp. | Humidity | Pressure | Rain* | Wind** | Luminosity | Snow |
|---|---|---|---|---|---|---|---|
| 1777895345 | 18.89° C | 75% | 1012.6 hPa | 0 mm | - | 246 W/m² | - |
| 1777895045 | 18.89° C | 75% | 1012.6 hPa | 0 mm | - | 260 W/m² | - |
| 1777894743 | 18.89° C | 75% | 1012.5 hPa | 0 mm | - | 332 W/m² | - |
| 1777894445 | 18.89° C | 74% | 1012.6 hPa | 0 mm | - | 387 W/m² | - |
| 1777894144 | 18.89° C | 74% | 1012.6 hPa | 0 mm | - | 341 W/m² | - |
| 1777893844 | 18.89° C | 76% | 1012.5 hPa | 0 mm | - | 352 W/m² | - |
| 1777893545 | 18.89° C | 75% | 1012.6 hPa | 0 mm | - | 306 W/m² | - |
| 1777893243 | 18.89° C | 73% | 1012.6 hPa | 0 mm | - | 418 W/m² | - |
| 1777892942 | 19.44° C | 73% | 1012.6 hPa | 0 mm | - | 974 W/m² | - |
| 1777892655 | 18.89° C | 73% | 1012.7 hPa | 0 mm | - | 786 W/m² | - |
| 1777892339 | 19.44° C | 74% | 1012.8 hPa | 0 mm | - | 954 W/m² | - |
| 1777892035 | 18.89° C | 77% | 1012.8 hPa | 0 mm | - | 443 W/m² | - |
| 1777891735 | 18.33° C | 80% | 1012.9 hPa | 0 mm | - | 424 W/m² | - |
| 1777891432 | 18.33° C | 78% | 1012.9 hPa | 0 mm | - | 359 W/m² | - |
| 1777891128 | 18.33° C | 76% | 1012.9 hPa | 0 mm | - | 480 W/m² | - |
| 1777890827 | 18.33° C | 77% | 1012.8 hPa | 0 mm | - | 868 W/m² | - |
| 1777890526 | 18.33° C | 80% | 1012.9 hPa | 0 mm | - | 956 W/m² | - |
| 1777890224 | 17.78° C | 79% | 1012.9 hPa | 0 mm | - | 475 W/m² | - |
| 1777889924 | 17.78° C | 80% | 1012.9 hPa | 0 mm | - | 455 W/m² | - |
| 1777889621 | 17.78° C | 78% | 1012.9 hPa | 0 mm | - | 332 W/m² | - |
| 1777889319 | 17.78° C | 82% | 1012.9 hPa | 0 mm | - | 436 W/m² | - |
| 1777889018 | 17.22° C | 79% | 1013 hPa | 0 mm | - | 404 W/m² | - |
| 1777888716 | 17.78° C | 82% | 1013.1 hPa | 0 mm | - | 473 W/m² | - |
| 1777888416 | 17.22° C | 81% | 1013.1 hPa | 0 mm | - | 754 W/m² | - |
| 1777888113 | 17.22° C | 82% | 1013 hPa | 0 mm | - | 480 W/m² | - |
* Rain latest hour (hover to see other rain measurements)
** Current wind speed in m/s (hover to see current wind gust speed)